sensor_id;sensor_type;location;lat;lon;timestamp;pressure;altitude;pressure_sealevel;temperature;humidity
72558;BME280;60583;50.094;8.748;2023-03-21T00:01:13;100753.75;;;10.32;64.40
72558;BME280;60583;50.094;8.748;2023-03-21T00:03:39;100749.44;;;10.31;65.07
72558;BME280;60583;50.094;8.748;2023-03-21T00:06:09;100742.91;;;10.33;64.71
72558;BME280;60583;50.094;8.748;2023-03-21T00:08:36;100765.75;;;10.42;65.11
72558;BME280;60583;50.094;8.748;2023-03-21T00:11:04;100734.75;;;10.20;64.98
72558;BME280;60583;50.094;8.748;2023-03-21T00:13:30;100762.66;;;10.39;65.71
72558;BME280;60583;50.094;8.748;2023-03-21T00:16:10;100760.66;;;10.26;65.14
72558;BME280;60583;50.094;8.748;2023-03-21T00:18:43;100761.63;;;10.40;65.19
72558;BME280;60583;50.094;8.748;2023-03-21T00:21:16;100700.13;;;10.05;65.32
72558;BME280;60583;50.094;8.748;2023-03-21T00:23:43;100761.34;;;10.35;65.89
72558;BME280;60583;50.094;8.748;2023-03-21T00:26:09;100721.63;;;10.18;65.23
72558;BME280;60583;50.094;8.748;2023-03-21T00:28:36;100748.88;;;10.35;65.88
72558;BME280;60583;50.094;8.748;2023-03-21T00:31:02;100731.00;;;10.14;65.82
72558;BME280;60583;50.094;8.748;2023-03-21T00:33:28;100749.94;;;10.19;65.98
72558;BME280;60583;50.094;8.748;2023-03-21T00:35:54;100748.53;;;10.23;65.56
72558;BME280;60583;50.094;8.748;2023-03-21T00:38:20;100717.56;;;10.08;65.78
72558;BME280;60583;50.094;8.748;2023-03-21T00:40:46;100709.25;;;9.96;66.03
72558;BME280;60583;50.094;8.748;2023-03-21T00:43:12;100711.13;;;10.02;66.26
72558;BME280;60583;50.094;8.748;2023-03-21T00:45:45;100725.69;;;10.14;65.69
72558;BME280;60583;50.094;8.748;2023-03-21T00:48:11;100729.97;;;10.15;66.16
72558;BME280;60583;50.094;8.748;2023-03-21T00:50:38;100726.03;;;10.11;65.82
72558;BME280;60583;50.094;8.748;2023-03-21T00:53:05;100697.94;;;9.94;66.04
72558;BME280;60583;50.094;8.748;2023-03-21T00:55:31;100721.91;;;10.09;66.10
72558;BME280;60583;50.094;8.748;2023-03-21T00:57:56;100721.50;;;10.27;65.32
72558;BME280;60583;50.094;8.748;2023-03-21T01:00:22;100725.81;;;10.27;65.41
72558;BME280;60583;50.094;8.748;2023-03-21T01:02:47;100727.53;;;10.35;65.16
72558;BME280;60583;50.094;8.748;2023-03-21T01:05:27;100710.28;;;10.31;65.58
72558;BME280;60583;50.094;8.748;2023-03-21T01:08:13;100658.88;;;10.01;65.31
72558;BME280;60583;50.094;8.748;2023-03-21T01:10:41;100720.47;;;10.27;65.26
72558;BME280;60583;50.094;8.748;2023-03-21T01:13:08;100706.63;;;10.17;65.90
72558;BME280;60583;50.094;8.748;2023-03-21T01:15:34;100707.38;;;10.11;66.13
72558;BME280;60583;50.094;8.748;2023-03-21T01:18:00;100711.81;;;10.04;66.30
72558;BME280;60583;50.094;8.748;2023-03-21T01:20:26;100658.03;;;9.65;66.74
72558;BME280;60583;50.094;8.748;2023-03-21T01:22:52;100706.31;;;9.91;66.73
72558;BME280;60583;50.094;8.748;2023-03-21T01:25:17;100695.03;;;9.89;66.74
72558;BME280;60583;50.094;8.748;2023-03-21T01:27:43;100709.81;;;9.92;67.18
72558;BME280;60583;50.094;8.748;2023-03-21T01:30:09;100688.75;;;9.82;67.16
72558;BME280;60583;50.094;8.748;2023-03-21T01:32:35;100708.34;;;9.89;67.57
72558;BME280;60583;50.094;8.748;2023-03-21T01:35:00;100712.00;;;9.88;68.77
72558;BME280;60583;50.094;8.748;2023-03-21T01:37:26;100666.78;;;9.59;68.87
72558;BME280;60583;50.094;8.748;2023-03-21T01:39:51;100677.16;;;9.54;69.24
72558;BME280;60583;50.094;8.748;2023-03-21T01:42:17;100704.06;;;9.59;70.24
72558;BME280;60583;50.094;8.748;2023-03-21T01:45:04;100701.13;;;9.54;70.05
72558;BME280;60583;50.094;8.748;2023-03-21T01:47:30;100705.13;;;9.50;70.37
72558;BME280;60583;50.094;8.748;2023-03-21T01:49:58;100691.91;;;9.42;70.99
72558;BME280;60583;50.094;8.748;2023-03-21T01:52:28;100684.75;;;9.28;70.86
72558;BME280;60583;50.094;8.748;2023-03-21T01:54:57;100699.63;;;9.37;71.24
72558;BME280;60583;50.094;8.748;2023-03-21T01:57:28;100696.03;;;9.30;71.29
72558;BME280;60583;50.094;8.748;2023-03-21T01:59:58;100649.50;;;8.96;70.36
72558;BME280;60583;50.094;8.748;2023-03-21T02:02:36;100690.81;;;9.22;69.84
72558;BME280;60583;50.094;8.748;2023-03-21T02:05:07;100655.38;;;9.07;70.29
72558;BME280;60583;50.094;8.748;2023-03-21T02:07:35;100701.38;;;9.30;70.53
72558;BME280;60583;50.094;8.748;2023-03-21T02:10:03;100696.41;;;9.27;70.36
72558;BME280;60583;50.094;8.748;2023-03-21T02:12:32;100676.13;;;9.11;71.01
72558;BME280;60583;50.094;8.748;2023-03-21T02:14:57;100663.47;;;9.13;70.27
72558;BME280;60583;50.094;8.748;2023-03-21T02:17:56;100682.44;;;9.10;71.85
72558;BME280;60583;50.094;8.748;2023-03-21T02:20:48;100681.25;;;9.13;71.97
72558;BME280;60583;50.094;8.748;2023-03-21T02:26:13;100676.56;;;9.00;72.22
72558;BME280;60583;50.094;8.748;2023-03-21T02:37:04;100660.94;;;8.82;73.28
72558;BME280;60583;50.094;8.748;2023-03-21T02:39:40;100678.84;;;8.88;72.19
72558;BME280;60583;50.094;8.748;2023-03-21T02:42:33;100665.63;;;8.80;72.57
72558;BME280;60583;50.094;8.748;2023-03-21T02:45:24;100661.75;;;8.68;74.06
72558;BME280;60583;50.094;8.748;2023-03-21T02:47:56;100653.00;;;8.60;73.80
72558;BME280;60583;50.094;8.748;2023-03-21T02:50:34;100648.09;;;8.49;73.33
72558;BME280;60583;50.094;8.748;2023-03-21T02:53:05;100660.78;;;8.61;73.65
72558;BME280;60583;50.094;8.748;2023-03-21T02:55:32;100622.44;;;8.41;73.28
72558;BME280;60583;50.094;8.748;2023-03-21T02:58:00;100650.25;;;8.53;72.50
72558;BME280;60583;50.094;8.748;2023-03-21T03:00:29;100627.75;;;8.41;73.24
72558;BME280;60583;50.094;8.748;2023-03-21T03:02:56;100661.53;;;8.55;73.20
72558;BME280;60583;50.094;8.748;2023-03-21T03:05:24;100661.53;;;8.55;73.11
72558;BME280;60583;50.094;8.748;2023-03-21T03:11:08;100630.47;;;8.33;72.47
72558;BME280;60583;50.094;8.748;2023-03-21T03:17:21;100654.25;;;8.49;72.78
72558;BME280;60583;50.094;8.748;2023-03-21T03:20:19;100656.97;;;8.41;73.44
72558;BME280;60583;50.094;8.748;2023-03-21T03:23:06;100653.84;;;8.38;73.63
72558;BME280;60583;50.094;8.748;2023-03-21T03:25:43;100655.91;;;8.27;75.22
72558;BME280;60583;50.094;8.748;2023-03-21T03:28:13;100650.16;;;8.16;75.73
72558;BME280;60583;50.094;8.748;2023-03-21T03:30:40;100613.31;;;7.90;75.16
72558;BME280;60583;50.094;8.748;2023-03-21T03:33:09;100619.75;;;7.96;75.34
72558;BME280;60583;50.094;8.748;2023-03-21T03:35:35;100590.09;;;7.61;75.81
72558;BME280;60583;50.094;8.748;2023-03-21T03:38:04;100654.94;;;7.98;75.79
72558;BME280;60583;50.094;8.748;2023-03-21T03:40:42;100622.03;;;7.76;76.68
72558;BME280;60583;50.094;8.748;2023-03-21T03:43:17;100641.75;;;7.82;76.61
72558;BME280;60583;50.094;8.748;2023-03-21T03:45:51;100651.81;;;7.86;76.73
72558;BME280;60583;50.094;8.748;2023-03-21T03:48:23;100647.56;;;7.77;76.84
72558;BME280;60583;50.094;8.748;2023-03-21T03:51:09;100638.16;;;7.66;77.37
72558;BME280;60583;50.094;8.748;2023-03-21T03:53:45;100624.09;;;7.58;77.05
72558;BME280;60583;50.094;8.748;2023-03-21T03:56:15;100638.47;;;7.71;76.88
72558;BME280;60583;50.094;8.748;2023-03-21T03:58:41;100650.06;;;7.70;77.08
72558;BME280;60583;50.094;8.748;2023-03-21T04:01:06;100645.78;;;7.69;76.79
72558;BME280;60583;50.094;8.748;2023-03-21T04:03:34;100595.78;;;7.50;76.68
72558;BME280;60583;50.094;8.748;2023-03-21T04:06:01;100639.78;;;7.76;76.58
72558;BME280;60583;50.094;8.748;2023-03-21T04:08:28;100631.50;;;7.70;76.32
72558;BME280;60583;50.094;8.748;2023-03-21T04:10:54;100642.31;;;7.69;76.24
72558;BME280;60583;50.094;8.748;2023-03-21T04:13:20;100628.44;;;7.51;76.93
72558;BME280;60583;50.094;8.748;2023-03-21T04:15:46;100644.84;;;7.62;76.89
72558;BME280;60583;50.094;8.748;2023-03-21T04:18:11;100638.38;;;7.57;76.26
72558;BME280;60583;50.094;8.748;2023-03-21T04:20:37;100614.91;;;7.38;77.25
72558;BME280;60583;50.094;8.748;2023-03-21T04:23:03;100626.53;;;7.37;78.00
72558;BME280;60583;50.094;8.748;2023-03-21T04:25:28;100614.44;;;7.34;77.57
72558;BME280;60583;50.094;8.748;2023-03-21T04:27:54;100625.34;;;7.47;77.38
72558;BME280;60583;50.094;8.748;2023-03-21T04:30:20;100622.00;;;7.45;76.87
72558;BME280;60583;50.094;8.748;2023-03-21T04:32:49;100549.09;;;7.02;77.30
72558;BME280;60583;50.094;8.748;2023-03-21T04:35:19;100579.88;;;7.12;77.12
72558;BME280;60583;50.094;8.748;2023-03-21T04:37:45;100617.09;;;7.34;77.35
72558;BME280;60583;50.094;8.748;2023-03-21T04:40:11;100588.69;;;7.12;78.30
72558;BME280;60583;50.094;8.748;2023-03-21T04:42:37;100610.50;;;7.22;78.63
72558;BME280;60583;50.094;8.748;2023-03-21T04:45:03;100630.88;;;7.30;77.65
72558;BME280;60583;50.094;8.748;2023-03-21T04:47:28;100631.22;;;7.27;78.30
72558;BME280;60583;50.094;8.748;2023-03-21T04:49:54;100629.09;;;7.22;77.70
72558;BME280;60583;50.094;8.748;2023-03-21T04:52:21;100630.25;;;7.20;78.50
72558;BME280;60583;50.094;8.748;2023-03-21T04:54:47;100617.44;;;7.31;77.16
72558;BME280;60583;50.094;8.748;2023-03-21T04:57:12;100624.53;;;7.39;77.43
72558;BME280;60583;50.094;8.748;2023-03-21T04:59:38;100622.38;;;7.42;76.92
72558;BME280;60583;50.094;8.748;2023-03-21T05:02:03;100610.84;;;7.27;77.48
72558;BME280;60583;50.094;8.748;2023-03-21T05:04:29;100627.63;;;7.50;77.32
72558;BME280;60583;50.094;8.748;2023-03-21T05:06:55;100580.78;;;7.35;76.82
72558;BME280;60583;50.094;8.748;2023-03-21T05:09:21;100624.88;;;7.75;75.39
72558;BME280;60583;50.094;8.748;2023-03-21T05:11:47;100609.72;;;7.52;75.92
72558;BME280;60583;50.094;8.748;2023-03-21T05:14:16;100632.97;;;7.73;76.21
72558;BME280;60583;50.094;8.748;2023-03-21T05:16:43;100594.50;;;7.46;76.25
72558;BME280;60583;50.094;8.748;2023-03-21T05:19:13;100601.69;;;7.60;75.77
72558;BME280;60583;50.094;8.748;2023-03-21T05:21:40;100628.69;;;7.72;76.48
72558;BME280;60583;50.094;8.748;2023-03-21T05:24:09;100624.59;;;7.61;77.30
72558;BME280;60583;50.094;8.748;2023-03-21T05:26:41;100627.78;;;7.57;77.29
72558;BME280;60583;50.094;8.748;2023-03-21T05:29:08;100588.38;;;7.38;77.08
72558;BME280;60583;50.094;8.748;2023-03-21T05:31:34;100594.22;;;7.33;77.29
72558;BME280;60583;50.094;8.748;2023-03-21T05:34:00;100594.91;;;7.27;77.88
72558;BME280;60583;50.094;8.748;2023-03-21T05:36:26;100606.16;;;7.37;78.50
72558;BME280;60583;50.094;8.748;2023-03-21T05:38:51;100585.63;;;7.23;77.72
72558;BME280;60583;50.094;8.748;2023-03-21T05:41:17;100604.59;;;7.43;78.24
72558;BME280;60583;50.094;8.748;2023-03-21T05:43:43;100615.03;;;7.52;77.80
72558;BME280;60583;50.094;8.748;2023-03-21T05:46:09;100621.94;;;7.61;76.83
72558;BME280;60583;50.094;8.748;2023-03-21T05:48:36;100605.72;;;7.56;76.55
72558;BME280;60583;50.094;8.748;2023-03-21T05:51:02;100618.53;;;7.76;76.27
72558;BME280;60583;50.094;8.748;2023-03-21T05:53:28;100613.19;;;7.84;76.84
72558;BME280;60583;50.094;8.748;2023-03-21T05:55:53;100584.84;;;7.76;75.73
72558;BME280;60583;50.094;8.748;2023-03-21T05:58:19;100597.50;;;7.97;75.16
72558;BME280;60583;50.094;8.748;2023-03-21T06:00:45;100606.72;;;8.09;75.12
72558;BME280;60583;50.094;8.748;2023-03-21T06:03:10;100553.16;;;7.83;75.58
72558;BME280;60583;50.094;8.748;2023-03-21T06:05:36;100535.03;;;7.86;75.09
72558;BME280;60583;50.094;8.748;2023-03-21T06:08:02;100582.75;;;8.17;75.32
72558;BME280;60583;50.094;8.748;2023-03-21T06:10:27;100609.69;;;8.37;75.22
72558;BME280;60583;50.094;8.748;2023-03-21T06:12:53;100589.81;;;8.32;74.40
72558;BME280;60583;50.094;8.748;2023-03-21T06:15:18;100601.69;;;8.59;73.70
72558;BME280;60583;50.094;8.748;2023-03-21T06:17:44;100608.94;;;8.65;73.26
72558;BME280;60583;50.094;8.748;2023-03-21T06:20:10;100612.25;;;8.82;73.58
72558;BME280;60583;50.094;8.748;2023-03-21T06:22:35;100618.13;;;8.92;73.16
72558;BME280;60583;50.094;8.748;2023-03-21T06:25:02;100621.44;;;8.94;73.35
72558;BME280;60583;50.094;8.748;2023-03-21T06:27:28;100561.53;;;8.54;73.43
72558;BME280;60583;50.094;8.748;2023-03-21T06:29:54;100596.84;;;8.77;72.80
72558;BME280;60583;50.094;8.748;2023-03-21T06:32:19;100621.06;;;8.97;73.31
72558;BME280;60583;50.094;8.748;2023-03-21T06:34:45;100610.22;;;8.84;73.25
72558;BME280;60583;50.094;8.748;2023-03-21T06:37:11;100618.88;;;9.01;73.00
72558;BME280;60583;50.094;8.748;2023-03-21T06:39:37;100622.81;;;8.90;72.89
72558;BME280;60583;50.094;8.748;2023-03-21T06:42:02;100631.16;;;9.02;72.30
72558;BME280;60583;50.094;8.748;2023-03-21T06:44:28;100637.50;;;9.15;72.85
72558;BME280;60583;50.094;8.748;2023-03-21T06:46:54;100621.63;;;9.22;72.39
72558;BME280;60583;50.094;8.748;2023-03-21T06:49:20;100637.34;;;9.31;71.37
72558;BME280;60583;50.094;8.748;2023-03-21T06:51:45;100621.72;;;9.43;71.05
72558;BME280;60583;50.094;8.748;2023-03-21T06:54:11;100635.00;;;9.57;71.48
72558;BME280;60583;50.094;8.748;2023-03-21T06:56:39;100633.13;;;9.73;70.67
72558;BME280;60583;50.094;8.748;2023-03-21T06:59:05;100619.47;;;9.76;70.53
72558;BME280;60583;50.094;8.748;2023-03-21T07:01:32;100584.25;;;9.80;69.92
72558;BME280;60583;50.094;8.748;2023-03-21T07:03:58;100625.31;;;10.21;69.47
72558;BME280;60583;50.094;8.748;2023-03-21T07:06:24;100569.81;;;10.10;68.23
72558;BME280;60583;50.094;8.748;2023-03-21T07:08:54;100627.25;;;10.55;67.31
72558;BME280;60583;50.094;8.748;2023-03-21T07:11:21;100623.97;;;10.81;66.24
72558;BME280;60583;50.094;8.748;2023-03-21T07:13:47;100638.06;;;11.03;66.25
72558;BME280;60583;50.094;8.748;2023-03-21T07:16:18;100580.34;;;10.95;65.04
72558;BME280;60583;50.094;8.748;2023-03-21T07:18:43;100633.75;;;11.36;64.55
72558;BME280;60583;50.094;8.748;2023-03-21T07:21:09;100622.47;;;11.40;64.16
72558;BME280;60583;50.094;8.748;2023-03-21T07:23:35;100581.47;;;11.07;64.17
72558;BME280;60583;50.094;8.748;2023-03-21T07:26:02;100602.56;;;11.43;63.89
72558;BME280;60583;50.094;8.748;2023-03-21T07:28:28;100627.19;;;11.38;63.17
72558;BME280;60583;50.094;8.748;2023-03-21T07:30:58;100640.19;;;11.48;63.82
72558;BME280;60583;50.094;8.748;2023-03-21T07:33:25;100608.56;;;11.45;63.14
72558;BME280;60583;50.094;8.748;2023-03-21T07:35:52;100641.28;;;11.60;62.84
72558;BME280;60583;50.094;8.748;2023-03-21T07:38:18;100608.97;;;11.48;63.41
72558;BME280;60583;50.094;8.748;2023-03-21T07:40:45;100641.63;;;11.85;62.89
72558;BME280;60583;50.094;8.748;2023-03-21T07:43:12;100604.22;;;11.85;62.86
72558;BME280;60583;50.094;8.748;2023-03-21T07:45:37;100624.38;;;11.94;63.11
72558;BME280;60583;50.094;8.748;2023-03-21T07:48:03;100577.38;;;11.59;62.71
72558;BME280;60583;50.094;8.748;2023-03-21T07:50:29;100634.66;;;11.97;61.95
72558;BME280;60583;50.094;8.748;2023-03-21T07:52:54;100637.34;;;11.97;61.67
72558;BME280;60583;50.094;8.748;2023-03-21T07:55:20;100616.56;;;11.92;60.58
72558;BME280;60583;50.094;8.748;2023-03-21T07:57:48;100632.59;;;11.99;61.54
72558;BME280;60583;50.094;8.748;2023-03-21T08:00:17;100625.59;;;11.85;61.48
72558;BME280;60583;50.094;8.748;2023-03-21T08:02:48;100623.53;;;11.87;61.13
72558;BME280;60583;50.094;8.748;2023-03-21T08:05:15;100606.63;;;11.73;61.31
72558;BME280;60583;50.094;8.748;2023-03-21T08:07:40;100616.13;;;11.89;62.36
72558;BME280;60583;50.094;8.748;2023-03-21T08:10:06;100586.88;;;11.68;61.33
72558;BME280;60583;50.094;8.748;2023-03-21T08:12:32;100597.81;;;11.86;61.87
72558;BME280;60583;50.094;8.748;2023-03-21T08:14:57;100619.06;;;12.13;60.54
72558;BME280;60583;50.094;8.748;2023-03-21T08:17:23;100626.25;;;12.00;62.03
72558;BME280;60583;50.094;8.748;2023-03-21T08:19:48;100624.75;;;11.78;62.34
72558;BME280;60583;50.094;8.748;2023-03-21T08:22:14;100606.03;;;11.78;62.30
72558;BME280;60583;50.094;8.748;2023-03-21T08:24:39;100599.69;;;11.92;60.76
72558;BME280;60583;50.094;8.748;2023-03-21T08:27:05;100588.56;;;11.88;60.89
72558;BME280;60583;50.094;8.748;2023-03-21T08:29:30;100608.75;;;12.04;60.62
72558;BME280;60583;50.094;8.748;2023-03-21T08:31:56;100590.09;;;12.17;60.44
72558;BME280;60583;50.094;8.748;2023-03-21T08:34:22;100589.91;;;12.38;60.35
72558;BME280;60583;50.094;8.748;2023-03-21T08:36:48;100616.63;;;12.84;59.83
72558;BME280;60583;50.094;8.748;2023-03-21T08:39:14;100608.81;;;12.82;58.30
72558;BME280;60583;50.094;8.748;2023-03-21T08:41:40;100596.91;;;12.78;58.43
72558;BME280;60583;50.094;8.748;2023-03-21T08:44:05;100611.69;;;13.07;57.73
72558;BME280;60583;50.094;8.748;2023-03-21T08:46:31;100630.41;;;13.20;57.88
72558;BME280;60583;50.094;8.748;2023-03-21T08:48:57;100606.06;;;13.35;57.01
72558;BME280;60583;50.094;8.748;2023-03-21T08:51:23;100614.66;;;13.50;56.62
72558;BME280;60583;50.094;8.748;2023-03-21T08:53:48;100581.97;;;13.73;55.76
72558;BME280;60583;50.094;8.748;2023-03-21T08:56:17;100598.56;;;13.50;55.72
72558;BME280;60583;50.094;8.748;2023-03-21T08:58:42;100584.34;;;13.50;55.80
72558;BME280;60583;50.094;8.748;2023-03-21T09:01:08;100608.31;;;13.38;56.07
72558;BME280;60583;50.094;8.748;2023-03-21T09:03:36;100606.66;;;13.43;56.17
72558;BME280;60583;50.094;8.748;2023-03-21T09:06:03;100607.88;;;13.48;56.41
72558;BME280;60583;50.094;8.748;2023-03-21T09:08:28;100563.09;;;13.04;56.58
72558;BME280;60583;50.094;8.748;2023-03-21T09:10:55;100595.59;;;13.20;56.56
72558;BME280;60583;50.094;8.748;2023-03-21T09:13:21;100625.59;;;13.42;57.43
72558;BME280;60583;50.094;8.748;2023-03-21T09:15:47;100601.78;;;13.21;57.04
72558;BME280;60583;50.094;8.748;2023-03-21T09:18:13;100619.09;;;13.12;56.94
72558;BME280;60583;50.094;8.748;2023-03-21T09:20:41;100606.09;;;13.02;57.46
72558;BME280;60583;50.094;8.748;2023-03-21T09:23:08;100608.38;;;13.12;57.87
72558;BME280;60583;50.094;8.748;2023-03-21T09:25:35;100608.81;;;13.09;58.08
72558;BME280;60583;50.094;8.748;2023-03-21T09:28:01;100609.19;;;12.99;58.46
72558;BME280;60583;50.094;8.748;2023-03-21T09:30:30;100591.72;;;12.90;57.88
72558;BME280;60583;50.094;8.748;2023-03-21T09:32:58;100601.16;;;13.06;57.69
72558;BME280;60583;50.094;8.748;2023-03-21T09:35:23;100601.16;;;12.99;58.10
72558;BME280;60583;50.094;8.748;2023-03-21T09:37:51;100563.31;;;12.82;58.07
72558;BME280;60583;50.094;8.748;2023-03-21T09:51:15;100596.22;;;13.16;57.23
72558;BME280;60583;50.094;8.748;2023-03-21T09:53:45;100586.97;;;13.12;57.38
72558;BME280;60583;50.094;8.748;2023-03-21T09:56:13;100586.75;;;13.00;57.57
72558;BME280;60583;50.094;8.748;2023-03-21T09:58:43;100608.97;;;13.20;57.51
72558;BME280;60583;50.094;8.748;2023-03-21T10:01:19;100611.44;;;13.28;57.76
72558;BME280;60583;50.094;8.748;2023-03-21T10:04:04;100611.25;;;13.23;58.47
72558;BME280;60583;50.094;8.748;2023-03-21T10:06:31;100590.88;;;13.16;58.10
72558;BME280;60583;50.094;8.748;2023-03-21T10:09:20;100625.41;;;13.37;58.39
72558;BME280;60583;50.094;8.748;2023-03-21T10:16:52;100600.78;;;13.09;57.97
72558;BME280;60583;50.094;8.748;2023-03-21T10:19:18;100611.25;;;13.17;59.37
72558;BME280;60583;50.094;8.748;2023-03-21T10:21:46;100603.84;;;13.12;58.71
72558;BME280;60583;50.094;8.748;2023-03-21T10:24:18;100612.47;;;13.34;58.59
72558;BME280;60583;50.094;8.748;2023-03-21T10:26:47;100611.03;;;13.31;58.78
72558;BME280;60583;50.094;8.748;2023-03-21T10:29:14;100609.59;;;13.29;59.09
72558;BME280;60583;50.094;8.748;2023-03-21T10:31:42;100582.25;;;13.14;59.11
72558;BME280;60583;50.094;8.748;2023-03-21T10:34:15;100602.16;;;13.24;58.90
72558;BME280;60583;50.094;8.748;2023-03-21T10:36:43;100604.03;;;13.17;58.90
72558;BME280;60583;50.094;8.748;2023-03-21T10:39:25;100557.31;;;13.00;58.73
72558;BME280;60583;50.094;8.748;2023-03-21T10:41:51;100589.81;;;13.23;59.87
72558;BME280;60583;50.094;8.748;2023-03-21T10:44:18;100574.78;;;13.29;58.84
72558;BME280;60583;50.094;8.748;2023-03-21T10:46:56;100581.34;;;13.33;59.12
72558;BME280;60583;50.094;8.748;2023-03-21T10:49:23;100592.16;;;13.64;58.90
72558;BME280;60583;50.094;8.748;2023-03-21T10:51:56;100595.25;;;13.55;58.11
72558;BME280;60583;50.094;8.748;2023-03-21T10:54:27;100589.75;;;13.43;57.43
72558;BME280;60583;50.094;8.748;2023-03-21T10:57:11;100589.41;;;13.26;58.32
72558;BME280;60583;50.094;8.748;2023-03-21T10:59:58;100591.88;;;13.28;58.69
72558;BME280;60583;50.094;8.748;2023-03-21T11:02:29;100599.72;;;13.23;58.66
72558;BME280;60583;50.094;8.748;2023-03-21T11:05:03;100571.34;;;13.09;58.62
72558;BME280;60583;50.094;8.748;2023-03-21T11:07:29;100596.03;;;13.11;60.08
72558;BME280;60583;50.094;8.748;2023-03-21T11:09:59;100588.41;;;13.08;61.43
72558;BME280;60583;50.094;8.748;2023-03-21T11:12:35;100599.31;;;13.13;62.53
72558;BME280;60583;50.094;8.748;2023-03-21T11:15:28;100601.41;;;13.11;62.85
72558;BME280;60583;50.094;8.748;2023-03-21T11:17:56;100600.16;;;13.13;63.65
72558;BME280;60583;50.094;8.748;2023-03-21T11:20:22;100598.50;;;13.06;64.77
72558;BME280;60583;50.094;8.748;2023-03-21T11:22:48;100581.19;;;13.02;64.55
72558;BME280;60583;50.094;8.748;2023-03-21T11:25:21;100571.75;;;12.93;65.38
72558;BME280;60583;50.094;8.748;2023-03-21T11:27:53;100581.00;;;13.16;66.19
72558;BME280;60583;50.094;8.748;2023-03-21T11:30:21;100593.75;;;13.21;67.26
72558;BME280;60583;50.094;8.748;2023-03-21T11:32:53;100572.97;;;13.10;67.71
72558;BME280;60583;50.094;8.748;2023-03-21T11:35:21;100591.47;;;13.18;68.20
72558;BME280;60583;50.094;8.748;2023-03-21T11:37:53;100587.38;;;13.15;69.74
72558;BME280;60583;50.094;8.748;2023-03-21T11:40:23;100589.63;;;13.05;68.72
72558;BME280;60583;50.094;8.748;2023-03-21T11:45:29;100563.94;;;12.85;70.41
72558;BME280;60583;50.094;8.748;2023-03-21T11:47:58;100584.91;;;12.94;70.64
72558;BME280;60583;50.094;8.748;2023-03-21T11:50:39;100585.13;;;12.93;71.34
72558;BME280;60583;50.094;8.748;2023-03-21T11:53:40;100593.13;;;12.99;71.29
72558;BME280;60583;50.094;8.748;2023-03-21T12:04:53;100561.47;;;12.76;74.56
72558;BME280;60583;50.094;8.748;2023-03-21T12:07:40;100558.44;;;12.40;74.97
72558;BME280;60583;50.094;8.748;2023-03-21T12:10:31;100571.78;;;12.21;75.71
72558;BME280;60583;50.094;8.748;2023-03-21T12:13:07;100545.66;;;12.16;75.88
72558;BME280;60583;50.094;8.748;2023-03-21T12:20:52;100570.31;;;11.92;75.83
72558;BME280;60583;50.094;8.748;2023-03-21T12:23:44;100562.50;;;12.03;76.27
72558;BME280;60583;50.094;8.748;2023-03-21T12:26:23;100567.66;;;12.11;76.54
72558;BME280;60583;50.094;8.748;2023-03-21T12:32:17;100560.06;;;12.15;76.75
72558;BME280;60583;50.094;8.748;2023-03-21T12:37:33;100550.59;;;12.39;76.43
72558;BME280;60583;50.094;8.748;2023-03-21T12:40:18;100544.63;;;12.24;76.89
72558;BME280;60583;50.094;8.748;2023-03-21T12:43:14;100537.25;;;12.12;77.14
72558;BME280;60583;50.094;8.748;2023-03-21T12:45:44;100537.22;;;12.19;76.77
72558;BME280;60583;50.094;8.748;2023-03-21T12:48:21;100500.84;;;12.05;78.08
72558;BME280;60583;50.094;8.748;2023-03-21T12:50:50;100533.94;;;12.10;76.55
72558;BME280;60583;50.094;8.748;2023-03-21T12:53:46;100524.88;;;12.11;75.93
72558;BME280;60583;50.094;8.748;2023-03-21T12:56:26;100509.03;;;12.03;76.07
72558;BME280;60583;50.094;8.748;2023-03-21T12:59:13;100520.78;;;12.02;74.52
72558;BME280;60583;50.094;8.748;2023-03-21T13:01:44;100501.03;;;11.90;73.76
72558;BME280;60583;50.094;8.748;2023-03-21T13:04:30;100519.53;;;11.92;73.98
72558;BME280;60583;50.094;8.748;2023-03-21T13:07:00;100487.22;;;11.74;74.18
72558;BME280;60583;50.094;8.748;2023-03-21T13:09:35;100482.72;;;11.81;73.59
72558;BME280;60583;50.094;8.748;2023-03-21T13:13:04;100509.44;;;11.94;71.15
72558;BME280;60583;50.094;8.748;2023-03-21T13:18:01;100492.78;;;11.79;74.50
72558;BME280;60583;50.094;8.748;2023-03-21T13:20:37;100498.75;;;11.74;74.18
72558;BME280;60583;50.094;8.748;2023-03-21T13:23:07;100445.47;;;11.53;74.32
72558;BME280;60583;50.094;8.748;2023-03-21T13:25:41;100503.28;;;11.87;74.57
72558;BME280;60583;50.094;8.748;2023-03-21T13:28:17;100500.59;;;11.93;75.12
72558;BME280;60583;50.094;8.748;2023-03-21T13:30:43;100468.56;;;11.87;73.56
72558;BME280;60583;50.094;8.748;2023-03-21T13:33:13;100488.28;;;11.86;74.99
72558;BME280;60583;50.094;8.748;2023-03-21T13:35:41;100493.63;;;11.99;74.50
72558;BME280;60583;50.094;8.748;2023-03-21T13:38:24;100453.53;;;11.86;73.88
72558;BME280;60583;50.094;8.748;2023-03-21T13:41:05;100491.56;;;11.94;75.38
72558;BME280;60583;50.094;8.748;2023-03-21T13:46:14;100484.56;;;11.93;75.28
72558;BME280;60583;50.094;8.748;2023-03-21T13:49:13;100475.13;;;11.84;76.29
72558;BME280;60583;50.094;8.748;2023-03-21T13:51:54;100480.91;;;11.88;75.49
72558;BME280;60583;50.094;8.748;2023-03-21T13:54:40;100486.25;;;11.88;75.83
72558;BME280;60583;50.094;8.748;2023-03-21T13:57:20;100487.47;;;11.92;75.23
72558;BME280;60583;50.094;8.748;2023-03-21T13:59:46;100477.41;;;11.87;76.00
72558;BME280;60583;50.094;8.748;2023-03-21T14:02:32;100442.22;;;11.71;76.98
72558;BME280;60583;50.094;8.748;2023-03-21T14:05:16;100470.22;;;11.88;77.45
72558;BME280;60583;50.094;8.748;2023-03-21T14:07:45;100447.56;;;11.71;77.58
72558;BME280;60583;50.094;8.748;2023-03-21T14:10:22;100461.34;;;11.74;78.63
72558;BME280;60583;50.094;8.748;2023-03-21T14:12:48;100459.44;;;11.62;79.71